createdAt,value
2019-03-19T00:25:47.025Z,-1.3
2019-03-19T00:26:37.834Z,-1.3
2019-03-19T00:27:27.327Z,-1.3
2019-03-19T00:28:17.353Z,-1.3
2019-03-19T00:30:15.618Z,-1.3
2019-03-19T00:31:05.496Z,-1.3
2019-03-19T00:31:55.487Z,-1.4
2019-03-19T00:32:45.466Z,-1.3
2019-03-19T00:33:35.522Z,-1.4
2019-03-19T00:34:25.500Z,-1.4
2019-03-19T00:35:15.550Z,-1.4
2019-03-19T00:36:05.923Z,-1.4
2019-03-19T00:36:55.875Z,-1.4
2019-03-19T00:37:48.754Z,-1.4
2019-03-19T00:38:35.729Z,-1.4
2019-03-19T00:51:14.383Z,-1.5
2019-03-19T00:52:04.307Z,-1.5
2019-03-19T00:53:16.038Z,-1.5
2019-03-19T00:54:08.734Z,-1.6
2019-03-19T00:54:58.754Z,-1.6
2019-03-19T00:55:51.909Z,-1.6
2019-03-19T00:56:47.449Z,-1.6
2019-03-19T00:57:38.162Z,-1.6
2019-03-19T00:58:27.241Z,-1.6
2019-03-19T00:59:20.907Z,-1.6
2019-03-19T01:01:23.534Z,-1.6
2019-03-19T01:02:13.600Z,-1.6
2019-03-19T01:03:07.524Z,-1.6
2019-03-19T01:03:57.379Z,-1.6
2019-03-19T01:04:47.407Z,-1.7
2019-03-19T01:05:37.895Z,-1.7
2019-03-19T01:06:28.911Z,-1.7
2019-03-19T01:07:20.932Z,-1.7
2019-03-19T01:08:15.056Z,-1.7
2019-03-19T01:09:06.443Z,-1.7
2019-03-19T01:09:59.934Z,-1.7
2019-03-19T01:10:51.174Z,-1.7
2019-03-19T01:11:40.537Z,-1.7
2019-03-19T01:12:30.796Z,-1.7
2019-03-19T01:13:20.711Z,-1.7
2019-03-19T01:14:10.957Z,-1.7
2019-03-19T01:16:08.915Z,-1.7
2019-03-19T01:16:58.942Z,-1.7
2019-03-19T01:17:49.477Z,-1.7
2019-03-19T01:18:38.915Z,-1.8
2019-03-19T01:19:28.946Z,-1.8
2019-03-19T01:20:21.842Z,-1.8
2019-03-19T01:21:13.204Z,-1.8
2019-03-19T01:22:03.193Z,-1.8
2019-03-19T01:22:53.111Z,-1.8
2019-03-19T01:23:48.003Z,-1.8
2019-03-19T01:24:37.295Z,-1.8
2019-03-19T01:26:29.934Z,-1.8
2019-03-19T01:27:19.834Z,-1.8
2019-03-19T01:28:09.847Z,-1.8
2019-03-19T01:29:01.128Z,-1.9
2019-03-19T01:29:52.245Z,-1.9
2019-03-19T01:30:43.358Z,-1.9
2019-03-19T01:31:33.363Z,-1.9
2019-03-19T01:32:23.602Z,-1.9
2019-03-19T01:33:13.681Z,-1.9
2019-03-19T01:34:03.357Z,-1.9
2019-03-19T01:34:53.924Z,-1.9
2019-03-19T01:35:44.847Z,-1.9
2019-03-19T01:36:34.742Z,-1.9
2019-03-19T01:37:25.116Z,-1.9
2019-03-19T01:38:14.743Z,-1.9
2019-03-19T01:39:09.645Z,-1.9
2019-03-19T01:39:59.637Z,-1.9
2019-03-19T01:40:55.192Z,-2
2019-03-19T01:41:45.100Z,-2
2019-03-19T01:42:35.144Z,-2
2019-03-19T01:43:25.235Z,-2
2019-03-19T01:44:16.809Z,-2
2019-03-19T01:45:06.598Z,-2
2019-03-19T01:45:59.071Z,-2
2019-03-19T01:46:51.149Z,-2
2019-03-19T01:47:40.618Z,-2
2019-03-19T01:48:30.781Z,-2
2019-03-19T01:49:20.515Z,-2
2019-03-19T01:50:10.646Z,-2
2019-03-19T01:51:00.655Z,-2
2019-03-19T01:51:52.032Z,-2.1
2019-03-19T01:52:41.495Z,-2.1
2019-03-19T01:53:31.647Z,-2.1
2019-03-19T01:54:26.531Z,-2.1
2019-03-19T01:55:17.277Z,-2.1
2019-03-19T01:56:06.664Z,-2.1
2019-03-19T01:56:56.449Z,-2.1
2019-03-19T01:57:46.528Z,-2.1
2019-03-19T01:58:37.152Z,-2.1
2019-03-19T01:59:27.194Z,-2.1
2019-03-19T02:00:17.131Z,-2.1
2019-03-19T02:01:19.262Z,-2.1
2019-03-19T02:02:11.947Z,-2.2
2019-03-19T02:03:01.982Z,-2.2
2019-03-19T02:03:54.006Z,-2.2
2019-03-19T02:04:41.823Z,-2.2
2019-03-19T02:05:31.907Z,-2.2
2019-03-19T02:06:21.804Z,-2.2
2019-03-19T02:07:11.861Z,-2.2
2019-03-19T02:08:01.897Z,-2.2
2019-03-19T02:08:55.376Z,-2.2
2019-03-19T02:09:46.635Z,-2.2
2019-03-19T02:10:37.490Z,-2.2
2019-03-19T02:11:27.413Z,-2.2
2019-03-19T02:12:17.548Z,-2.2
2019-03-19T02:13:07.431Z,-2.2
2019-03-19T02:13:58.775Z,-2.2
2019-03-19T02:14:47.447Z,-2.3
2019-03-19T02:15:37.473Z,-2.3
2019-03-19T02:16:33.369Z,-2.3
2019-03-19T02:17:23.764Z,-2.3
2019-03-19T02:18:19.149Z,-2.3
2019-03-19T02:19:09.350Z,-2.3
2019-03-19T02:20:00.696Z,-2.3
2019-03-19T02:20:50.597Z,-2.3
2019-03-19T02:21:40.780Z,-2.3
2019-03-19T02:22:31.183Z,-2.3
2019-03-19T02:23:22.848Z,-2.3
2019-03-19T02:24:12.957Z,-2.3
2019-03-19T02:25:02.885Z,-2.3
2019-03-19T02:25:53.101Z,-2.4
2019-03-19T02:27:39.411Z,-2.4
2019-03-19T02:28:32.391Z,-2.4
2019-03-19T02:29:22.718Z,-2.4
2019-03-19T02:30:12.358Z,-2.4
2019-03-19T02:31:03.930Z,-2.4
2019-03-19T02:31:54.530Z,-2.4
2019-03-19T02:32:44.727Z,-2.4
2019-03-19T02:33:39.990Z,-2.4
2019-03-19T02:34:30.266Z,-2.4
2019-03-19T02:35:24.832Z,-2.4
2019-03-19T02:36:14.915Z,-2.5
2019-03-19T02:37:05.094Z,-2.5
2019-03-19T02:37:56.050Z,-2.5
2019-03-19T02:38:50.628Z,-2.5
2019-03-19T02:39:40.643Z,-2.5
2019-03-19T02:40:30.578Z,-2.5
2019-03-19T02:41:20.930Z,-2.5
2019-03-19T02:42:10.832Z,-2.5
2019-03-19T02:43:01.416Z,-2.5
2019-03-19T02:43:56.116Z,-2.5
2019-03-19T02:44:46.000Z,-2.5
2019-03-19T02:45:38.922Z,-2.5
2019-03-19T02:46:28.940Z,-2.5
2019-03-19T02:47:22.297Z,-2.5
2019-03-19T02:48:13.194Z,-2.5
2019-03-19T02:49:06.600Z,-2.5
2019-03-19T02:49:56.609Z,-2.5
2019-03-19T02:50:46.841Z,-2.5
2019-03-19T02:51:36.934Z,-2.5
2019-03-19T02:53:29.889Z,-2.5
2019-03-19T02:54:24.602Z,-2.5
2019-03-19T02:55:14.683Z,-2.5
2019-03-19T02:56:06.469Z,-2.6
2019-03-19T02:56:56.229Z,-2.6
2019-03-19T02:57:47.538Z,-2.6
2019-03-19T02:58:37.536Z,-2.6
2019-03-19T02:59:29.028Z,-2.6
2019-03-19T03:00:19.002Z,-2.6
2019-03-19T03:01:09.060Z,-2.6
2019-03-19T03:01:59.194Z,-2.6
2019-03-19T03:02:49.083Z,-2.6
2019-03-19T03:03:39.003Z,-2.6
2019-03-19T03:04:33.888Z,-2.6
2019-03-19T03:05:24.013Z,-2.6
2019-03-19T03:06:17.760Z,-2.7
2019-03-19T03:07:07.756Z,-2.7
2019-03-19T03:07:57.646Z,-2.7
2019-03-19T03:08:47.671Z,-2.7
2019-03-19T03:09:39.081Z,-2.7
2019-03-19T03:10:31.237Z,-2.7
2019-03-19T03:11:21.109Z,-2.7
2019-03-19T03:12:11.371Z,-2.7
2019-03-19T03:13:04.638Z,-2.7
2019-03-19T03:13:56.261Z,-2.7
2019-03-19T03:14:46.505Z,-2.7
2019-03-19T03:15:36.261Z,-2.7
2019-03-19T03:16:26.235Z,-2.7
2019-03-19T03:17:16.234Z,-2.7
2019-03-19T03:18:08.329Z,-2.7
2019-03-19T03:19:00.693Z,-2.7
2019-03-19T03:19:50.681Z,-2.7
2019-03-19T03:20:43.725Z,-2.7
2019-03-19T03:21:34.728Z,-2.7
2019-03-19T03:22:28.564Z,-2.8
2019-03-19T03:23:18.603Z,-2.8
2019-03-19T03:24:11.482Z,-2.8
2019-03-19T03:24:59.594Z,-2.8
2019-03-19T03:25:49.549Z,-2.8
2019-03-19T03:26:47.253Z,-2.8
2019-03-19T03:27:29.571Z,-2.8
2019-03-19T03:28:19.609Z,-2.8
2019-03-19T03:29:11.400Z,-2.8
2019-03-19T03:30:01.411Z,-2.8
2019-03-19T03:30:51.398Z,-2.8
2019-03-19T03:31:41.540Z,-2.8
2019-03-19T03:32:31.462Z,-2.8
2019-03-19T03:33:21.477Z,-2.8
2019-03-19T03:34:11.824Z,-2.8
2019-03-19T03:35:01.701Z,-2.8
2019-03-19T03:35:51.721Z,-2.8
2019-03-19T03:36:41.645Z,-2.8
2019-03-19T03:37:36.615Z,-2.8
2019-03-19T03:38:26.603Z,-2.8
2019-03-19T03:39:21.781Z,-2.9
2019-03-19T03:40:12.255Z,-2.9
2019-03-19T03:41:01.344Z,-2.9
2019-03-19T03:41:51.392Z,-2.9
2019-03-19T03:42:43.289Z,-2.9
2019-03-19T03:43:32.778Z,-2.9
2019-03-19T03:44:22.767Z,-2.9
2019-03-19T03:45:13.100Z,-2.9
2019-03-19T03:46:10.307Z,-2.9
2019-03-19T03:46:57.753Z,-2.9
2019-03-19T03:47:48.721Z,-2.9
2019-03-19T03:48:37.749Z,-2.9
2019-03-19T03:49:27.727Z,-2.9
2019-03-19T03:50:17.797Z,-2.9
2019-03-19T03:51:10.601Z,-2.9
2019-03-19T03:51:58.273Z,-2.9
2019-03-19T03:52:48.316Z,-2.9
2019-03-19T03:53:38.283Z,-2.9
2019-03-19T03:54:28.276Z,-2.9
2019-03-19T03:55:18.225Z,-2.9
2019-03-19T03:56:08.252Z,-2.9
2019-03-19T03:57:02.143Z,-2.9
2019-03-19T03:57:48.459Z,-2.9
2019-03-19T03:58:38.261Z,-2.9
2019-03-19T03:59:32.394Z,-2.9
2019-03-19T04:00:22.427Z,-2.9
2019-03-19T04:01:12.401Z,-2.9
2019-03-19T04:02:02.328Z,-2.9
2019-03-19T04:02:52.408Z,-2.9
2019-03-19T04:03:43.207Z,-2.9
2019-03-19T04:04:34.065Z,-2.9
2019-03-19T04:05:24.161Z,-2.9
2019-03-19T04:06:16.117Z,-2.9
2019-03-19T04:07:04.016Z,-2.9
2019-03-19T04:07:55.157Z,-2.9
2019-03-19T04:08:45.193Z,-2.9
2019-03-19T04:09:39.133Z,-2.9
2019-03-19T04:10:28.659Z,-2.9
2019-03-19T04:11:18.657Z,-2.9
2019-03-19T04:12:08.650Z,-2.9
2019-03-19T04:13:00.619Z,-2.9
2019-03-19T04:13:50.132Z,-2.9
2019-03-19T04:14:42.006Z,-2.9
2019-03-19T04:15:31.923Z,-2.9
2019-03-19T04:16:22.733Z,-2.9
2019-03-19T04:17:14.427Z,-2.9
2019-03-19T04:18:02.709Z,-2.9
2019-03-19T04:18:52.504Z,-2.9
2019-03-19T04:19:42.524Z,-2.9
2019-03-19T04:20:32.523Z,-2.9
2019-03-19T04:21:22.497Z,-2.9
2019-03-19T04:22:15.990Z,-2.9
2019-03-19T04:23:04.526Z,-2.9
2019-03-19T04:23:54.576Z,-2.9
2019-03-19T04:24:44.493Z,-2.9
2019-03-19T04:25:34.609Z,-2.9
2019-03-19T04:26:24.584Z,-2.9
2019-03-19T04:27:16.695Z,-2.9
2019-03-19T04:28:04.526Z,-2.9
2019-03-19T04:28:54.483Z,-3
2019-03-19T04:29:44.516Z,-2.9
2019-03-19T04:30:34.513Z,-3
2019-03-19T04:31:24.521Z,-2.9
2019-03-19T04:32:16.802Z,-3
2019-03-19T04:33:06.463Z,-3
2019-03-19T04:33:58.396Z,-3
2019-03-19T04:34:48.391Z,-3
2019-03-19T04:35:38.827Z,-3
2019-03-19T04:36:28.733Z,-3
2019-03-19T04:37:19.724Z,-3
2019-03-19T04:38:08.928Z,-3
2019-03-19T04:40:00.582Z,-3
2019-03-19T04:40:50.286Z,-3
2019-03-19T04:41:40.245Z,-3
2019-03-19T04:42:31.430Z,-3
2019-03-19T04:43:22.158Z,-3
2019-03-19T04:44:11.351Z,-3
2019-03-19T04:45:01.260Z,-3
2019-03-19T04:45:54.671Z,-3
2019-03-19T04:46:44.598Z,-3
2019-03-19T04:47:39.582Z,-3
2019-03-19T04:48:29.593Z,-3
2019-03-19T04:49:24.843Z,-3
2019-03-19T04:50:14.259Z,-3
2019-03-19T04:51:04.289Z,-3
2019-03-19T04:51:54.356Z,-3
2019-03-19T04:52:46.803Z,-3
2019-03-19T04:53:36.700Z,-3
2019-03-19T04:54:26.722Z,-3.1
2019-03-19T04:55:16.755Z,-3.1
2019-03-19T04:56:07.894Z,-3.1
2019-03-19T04:56:57.838Z,-3.1
2019-03-19T04:57:53.791Z,-3.1
2019-03-19T04:58:43.765Z,-3.1
2019-03-19T04:59:41.123Z,-3.1
2019-03-19T05:00:31.075Z,-3.1
2019-03-19T05:01:26.704Z,-3.1
2019-03-19T05:02:16.768Z,-3.1
2019-03-19T05:03:11.529Z,-3.1
2019-03-19T05:04:01.500Z,-3.1
2019-03-19T05:04:51.484Z,-3.1
2019-03-19T05:05:41.525Z,-3.2
2019-03-19T05:06:31.498Z,-3.1
2019-03-19T05:07:21.908Z,-3.2
2019-03-19T05:08:11.466Z,-3.2
2019-03-19T05:09:01.577Z,-3.2
2019-03-19T05:09:56.776Z,-3.2
2019-03-19T05:10:46.301Z,-3.2
2019-03-19T05:11:36.601Z,-3.2
2019-03-19T05:12:26.301Z,-3.2
2019-03-19T05:13:23.319Z,-3.2
2019-03-19T05:14:11.106Z,-3.2
2019-03-19T05:15:01.116Z,-3.2
2019-03-19T05:15:51.048Z,-3.2
2019-03-19T05:16:42.046Z,-3.2
2019-03-19T05:17:35.239Z,-3.2
2019-03-19T05:18:25.870Z,-3.2
2019-03-19T05:19:18.720Z,-3.2
2019-03-19T05:20:12.256Z,-3.2
2019-03-19T05:21:03.873Z,-3.2
2019-03-19T05:21:53.872Z,-3.2
2019-03-19T05:22:43.839Z,-3.2
2019-03-19T05:23:40.764Z,-3.2
2019-03-19T05:24:31.813Z,-3.2
2019-03-19T05:25:26.775Z,-3.2
2019-03-19T05:26:16.698Z,-3.2
2019-03-19T05:27:08.204Z,-3.2
2019-03-19T05:27:58.237Z,-3.2
2019-03-19T05:28:51.117Z,-3.3
2019-03-19T05:29:41.091Z,-3.3
2019-03-19T05:30:31.141Z,-3.3
2019-03-19T05:31:21.062Z,-3.3
2019-03-19T05:32:16.053Z,-3.3
2019-03-19T05:33:06.085Z,-3.3
2019-03-19T05:33:56.357Z,-3.3
2019-03-19T05:34:46.350Z,-3.3
2019-03-19T05:35:36.346Z,-3.3
2019-03-19T05:36:28.540Z,-3.3
2019-03-19T05:37:16.611Z,-3.3
2019-03-19T05:38:09.327Z,-3.3
2019-03-19T05:38:59.228Z,-3.3
2019-03-19T05:39:49.265Z,-3.3
2019-03-19T05:40:42.632Z,-3.3
2019-03-19T05:41:33.136Z,-3.3
2019-03-19T05:42:26.134Z,-3.3
2019-03-19T05:43:16.121Z,-3.3
2019-03-19T05:44:08.420Z,-3.3
2019-03-19T05:44:58.384Z,-3.3
2019-03-19T05:45:48.327Z,-3.3
2019-03-19T05:46:38.300Z,-3.4
2019-03-19T05:47:36.946Z,-3.3
2019-03-19T05:48:20.497Z,-3.4
2019-03-19T05:49:11.690Z,-3.4
2019-03-19T05:50:01.626Z,-3.4
2019-03-19T05:50:53.734Z,-3.4
2019-03-19T05:51:43.580Z,-3.4
2019-03-19T05:52:35.242Z,-3.4
2019-03-19T05:53:23.668Z,-3.4
2019-03-19T05:54:13.760Z,-3.4
2019-03-19T05:55:04.037Z,-3.4
2019-03-19T05:55:54.015Z,-3.4
2019-03-19T05:56:44.287Z,-3.4
2019-03-19T05:57:48.675Z,-3.4
2019-03-19T05:58:43.535Z,-3.4
2019-03-19T05:59:44.490Z,-3.4
2019-03-19T06:00:37.332Z,-3.4
2019-03-19T06:01:28.094Z,-3.4
2019-03-19T06:02:17.253Z,-3.4
2019-03-19T06:03:07.237Z,-3.4
2019-03-19T06:03:57.276Z,-3.4
2019-03-19T06:04:48.922Z,-3.4
2019-03-19T06:05:39.206Z,-3.4
2019-03-19T06:06:30.536Z,-3.4
2019-03-19T06:07:19.050Z,-3.4
2019-03-19T06:08:09.053Z,-3.4
2019-03-19T06:08:59.155Z,-3.4
2019-03-19T06:09:49.019Z,-3.4
2019-03-19T06:10:39.354Z,-3.4
2019-03-19T06:11:30.658Z,-3.4
2019-03-19T06:12:19.018Z,-3.5
2019-03-19T06:13:09.033Z,-3.5
2019-03-19T06:13:59.039Z,-3.5
2019-03-19T06:14:49.051Z,-3.4
2019-03-19T06:15:39.101Z,-3.4
2019-03-19T06:16:34.132Z,-3.4
2019-03-19T06:17:28.342Z,-3.4
2019-03-19T06:18:34.249Z,-3.4
2019-03-19T06:19:17.732Z,-3.4
2019-03-19T06:20:07.894Z,-3.4
2019-03-19T06:20:58.801Z,-3.4
2019-03-19T06:21:50.878Z,-3.4
2019-03-19T06:22:41.776Z,-3.4
2019-03-19T06:24:44.071Z,-3.4
2019-03-19T06:25:35.970Z,-3.4
2019-03-19T06:26:26.362Z,-3.4
2019-03-19T06:27:16.251Z,-3.4
2019-03-19T06:28:06.381Z,-3.4
2019-03-19T06:28:56.263Z,-3.4
2019-03-19T06:29:47.976Z,-3.4
2019-03-19T06:30:37.921Z,-3.4
2019-03-19T06:31:27.940Z,-3.4
2019-03-19T06:32:17.931Z,-3.4
2019-03-19T06:33:07.950Z,-3.4
2019-03-19T06:33:58.037Z,-3.4
2019-03-19T06:34:47.954Z,-3.4
2019-03-19T06:35:37.954Z,-3.4
2019-03-19T06:36:27.956Z,-3.4
2019-03-19T06:37:17.966Z,-3.4
2019-03-19T06:38:08.919Z,-3.4
2019-03-19T06:38:58.810Z,-3.3
2019-03-19T06:39:50.705Z,-3.3
2019-03-19T06:40:39.150Z,-3.3
2019-03-19T06:41:28.777Z,-3.3
2019-03-19T06:42:18.861Z,-3.3
2019-03-19T06:43:08.781Z,-3.2
2019-03-19T06:43:59.910Z,-3.2
2019-03-19T06:44:51.453Z,-3.2
2019-03-19T06:45:40.715Z,-3.2
2019-03-19T06:46:30.973Z,-3.2
2019-03-19T06:47:20.657Z,-3.3
2019-03-19T06:48:11.528Z,-3.3
2019-03-19T06:49:02.467Z,-3.2
2019-03-19T06:49:54.455Z,-3.2
2019-03-19T06:50:45.679Z,-3.2
2019-03-19T06:51:35.658Z,-3.2
2019-03-19T06:52:24.975Z,-3.2
2019-03-19T06:53:14.940Z,-3.1
2019-03-19T06:54:04.970Z,-3.1
2019-03-19T06:54:55.037Z,-3.1
2019-03-19T06:55:44.978Z,-3.1
2019-03-19T06:56:35.199Z,-3
2019-03-19T06:57:24.950Z,-3
2019-03-19T06:58:14.958Z,-2.9
2019-03-19T06:59:10.709Z,-2.9
2019-03-19T06:59:54.973Z,-2.9
2019-03-19T07:00:44.948Z,-2.9
2019-03-19T07:01:35.102Z,-2.9
2019-03-19T07:02:24.992Z,-2.9
2019-03-19T07:03:14.958Z,-2.9
2019-03-19T07:04:04.929Z,-2.9
2019-03-19T07:04:54.945Z,-2.9
2019-03-19T07:05:45.091Z,-2.8
2019-03-19T07:06:35.835Z,-2.8
2019-03-19T07:07:25.625Z,-2.8
2019-03-19T07:08:15.858Z,-2.8
2019-03-19T07:09:05.834Z,-2.7
2019-03-19T07:09:55.840Z,-2.7
2019-03-19T07:10:47.867Z,-2.6
2019-03-19T07:11:40.678Z,-2.6
2019-03-19T07:12:27.909Z,-2.5
2019-03-19T07:13:17.846Z,-2.5
2019-03-19T07:14:07.862Z,-2.5
2019-03-19T07:15:02.939Z,-2.5
2019-03-19T07:15:52.942Z,-2.5
2019-03-19T07:16:44.696Z,-2.5
2019-03-19T07:17:32.898Z,-2.4
2019-03-19T07:18:22.936Z,-2.4
2019-03-19T07:19:13.136Z,-2.4
2019-03-19T07:20:03.161Z,-2.3
2019-03-19T07:20:53.197Z,-2.3
2019-03-19T07:21:43.188Z,-2.3
2019-03-19T07:22:33.153Z,-2.3
2019-03-19T07:23:23.329Z,-2.3
2019-03-19T07:24:13.158Z,-2.2
2019-03-19T07:25:03.186Z,-2.2
2019-03-19T07:25:53.134Z,-2.1
2019-03-19T07:26:43.221Z,-2
2019-03-19T07:27:33.192Z,-1.9
2019-03-19T07:28:23.205Z,-1.8
2019-03-19T07:29:13.210Z,-1.8
2019-03-19T07:30:03.164Z,-1.7
2019-03-19T07:30:53.213Z,-1.7
2019-03-19T07:31:43.760Z,-1.6
2019-03-19T07:32:33.151Z,-1.6
2019-03-19T07:33:23.830Z,-1.5
2019-03-19T07:34:13.326Z,-1.5
2019-03-19T07:35:03.113Z,-1.5
2019-03-19T07:35:53.241Z,-1.5
2019-03-19T07:36:44.375Z,-1.5
2019-03-19T07:37:33.130Z,-1.4
2019-03-19T07:38:23.399Z,-1.4
2019-03-19T07:39:13.153Z,-1.3
2019-03-19T07:40:03.199Z,-1.3
2019-03-19T07:40:53.154Z,-1.2
2019-03-19T07:41:44.850Z,-1.2
2019-03-19T07:42:33.150Z,-1.1
2019-03-19T07:43:24.025Z,-1.1
2019-03-19T07:44:13.160Z,-1.1
2019-03-19T07:45:03.173Z,-1.1
2019-03-19T07:45:53.170Z,-1.1
2019-03-19T07:46:46.104Z,-1.1
2019-03-19T07:47:33.192Z,-1.1
2019-03-19T07:48:24.035Z,-1.1
2019-03-19T07:49:13.139Z,-1.1
2019-03-19T07:50:03.195Z,-1.1
2019-03-19T07:50:54.123Z,-1.1
2019-03-19T07:51:43.487Z,-1.1
2019-03-19T07:52:33.149Z,-1.1
2019-03-19T07:53:23.568Z,-1
2019-03-19T07:54:13.188Z,-0.9
2019-03-19T07:55:03.323Z,-0.9
2019-03-19T07:55:53.525Z,-0.8
2019-03-19T07:56:46.555Z,-0.8
2019-03-19T07:57:34.378Z,-0.7
2019-03-19T07:58:32.958Z,-0.7
2019-03-19T07:59:15.978Z,-0.6
2019-03-19T08:00:05.828Z,-0.6
2019-03-19T08:00:55.867Z,-0.5
2019-03-19T08:01:47.893Z,-0.4
2019-03-19T08:02:35.793Z,-0.4
2019-03-19T08:03:26.679Z,-0.3
2019-03-19T08:04:16.588Z,-0.2
2019-03-19T08:05:06.626Z,-0.2
2019-03-19T08:05:56.690Z,-0.2
2019-03-19T08:06:47.865Z,-0.2
2019-03-19T08:07:36.663Z,-0.1
2019-03-19T08:08:26.677Z,-0.1
2019-03-19T08:09:16.720Z,-0.1
2019-03-19T08:10:06.622Z,-0.1
2019-03-19T08:10:56.649Z,-0.1
2019-03-19T08:11:46.693Z,-0.1
2019-03-19T08:12:36.623Z,-0.1
2019-03-19T08:13:26.659Z,-0.1
2019-03-19T08:14:20.178Z,-0.1
2019-03-19T08:15:10.215Z,-0.1
2019-03-19T08:16:00.550Z,0
2019-03-19T08:16:53.232Z,0
2019-03-19T08:17:40.024Z,0
2019-03-19T08:18:30.650Z,0
2019-03-19T08:19:20.685Z,0.1
2019-03-19T08:20:10.667Z,0.1
2019-03-19T08:21:00.674Z,0.1
2019-03-19T08:21:51.435Z,0.1
2019-03-19T08:22:40.687Z,0.1
2019-03-19T08:23:30.685Z,0.1
2019-03-19T08:24:20.696Z,0.2
2019-03-19T08:25:10.925Z,0.2
2019-03-19T08:26:00.643Z,0.2
2019-03-19T08:26:52.447Z,0.3
2019-03-19T08:27:40.679Z,0.3
2019-03-19T08:28:30.676Z,0.3
2019-03-19T08:29:21.958Z,0.3
2019-03-19T08:30:11.942Z,0.4
2019-03-19T08:31:01.862Z,0.4
2019-03-19T08:31:52.656Z,0.4
2019-03-19T08:32:41.875Z,0.5
2019-03-19T08:33:31.912Z,0.5
2019-03-19T08:34:21.852Z,0.5
2019-03-19T08:35:11.903Z,0.6
2019-03-19T08:36:09.144Z,0.6
2019-03-19T08:36:52.841Z,0.7
2019-03-19T08:37:41.891Z,0.7
2019-03-19T08:38:31.909Z,0.8
2019-03-19T08:39:21.906Z,0.8
2019-03-19T08:40:11.925Z,0.8
2019-03-19T08:41:01.887Z,0.8
2019-03-19T08:41:51.878Z,0.8
2019-03-19T08:42:41.853Z,0.9
2019-03-19T08:43:31.896Z,1
2019-03-19T08:44:27.597Z,1
2019-03-19T08:45:11.945Z,1.1
2019-03-19T08:46:01.878Z,1.1
2019-03-19T08:46:52.413Z,1.1
2019-03-19T08:47:42.666Z,1.1
2019-03-19T08:48:32.389Z,1.1
2019-03-19T08:49:22.478Z,1.2
2019-03-19T08:50:12.384Z,1.2
2019-03-19T08:51:02.574Z,1.2
2019-03-19T08:51:52.471Z,1.3
2019-03-19T08:52:42.387Z,1.3
2019-03-19T08:53:32.353Z,1.4
2019-03-19T08:54:22.380Z,1.4
2019-03-19T08:55:12.410Z,1.4
2019-03-19T08:56:02.372Z,1.5
2019-03-19T08:56:52.391Z,1.5
2019-03-19T08:57:42.394Z,1.5
2019-03-19T08:58:32.437Z,1.6
2019-03-19T08:59:23.323Z,1.6
2019-03-19T09:00:14.343Z,1.7
2019-03-19T09:01:04.243Z,1.7
2019-03-19T09:01:54.424Z,1.8
2019-03-19T09:02:44.321Z,1.8
2019-03-19T09:03:34.266Z,1.8
2019-03-19T09:04:24.309Z,1.9
2019-03-19T09:05:15.138Z,1.9
2019-03-19T09:06:05.035Z,1.9
2019-03-19T09:06:55.095Z,2
2019-03-19T09:07:45.841Z,2
2019-03-19T09:08:35.001Z,2.1
2019-03-19T09:09:25.025Z,2.2
2019-03-19T09:10:15.073Z,2.3
2019-03-19T09:11:06.796Z,2.4
2019-03-19T09:11:56.049Z,2.4
2019-03-19T09:12:48.113Z,2.4
2019-03-19T09:13:36.001Z,2.5
2019-03-19T09:14:30.350Z,2.5
2019-03-19T09:15:20.249Z,2.5
2019-03-19T09:16:10.200Z,2.6
2019-03-19T09:17:02.278Z,2.6
2019-03-19T09:17:50.521Z,2.6
2019-03-19T09:18:40.467Z,2.6
2019-03-19T09:19:30.552Z,2.7
2019-03-19T09:20:20.500Z,2.7
2019-03-19T09:21:10.515Z,2.7
2019-03-19T09:22:00.565Z,2.8
2019-03-19T09:22:51.101Z,2.9
2019-03-19T09:23:41.122Z,2.9
2019-03-19T09:24:31.396Z,2.9
2019-03-19T09:25:21.096Z,3
2019-03-19T09:26:11.077Z,3
2019-03-19T09:27:01.465Z,3.1
2019-03-19T09:27:51.322Z,3.1
2019-03-19T09:28:41.342Z,3.2
2019-03-19T09:29:32.831Z,3.2
2019-03-19T09:30:22.309Z,3.2
2019-03-19T09:31:12.250Z,3.3
2019-03-19T09:32:03.391Z,3.4
2019-03-19T09:32:53.440Z,3.4
2019-03-19T09:33:43.387Z,3.4
2019-03-19T09:34:33.467Z,3.4
2019-03-19T09:35:23.504Z,3.5
2019-03-19T09:36:13.446Z,3.5
2019-03-19T09:37:05.879Z,3.5
2019-03-19T09:37:58.572Z,3.6
2019-03-19T09:38:43.841Z,3.6
2019-03-19T09:39:34.010Z,3.6
2019-03-19T09:40:25.139Z,3.7
2019-03-19T09:41:15.173Z,3.7
2019-03-19T09:42:05.064Z,3.8
2019-03-19T09:42:55.096Z,3.8
2019-03-19T09:43:45.129Z,3.9
2019-03-19T09:44:35.179Z,3.9
2019-03-19T09:45:25.768Z,4
2019-03-19T09:46:18.506Z,4
2019-03-19T09:47:06.549Z,4.1
2019-03-19T09:47:55.986Z,4.1
2019-03-19T09:48:47.777Z,4.1
2019-03-19T09:49:37.067Z,4.2
2019-03-19T09:50:27.091Z,4.3
2019-03-19T09:51:18.314Z,4.3
2019-03-19T09:52:10.602Z,4.3
2019-03-19T09:52:59.118Z,4.4
2019-03-19T09:53:49.404Z,4.4
2019-03-19T09:54:39.389Z,4.5
2019-03-19T09:55:29.375Z,4.6
2019-03-19T09:56:20.250Z,4.7
2019-03-19T09:57:13.673Z,4.7
2019-03-19T09:58:01.501Z,4.8
2019-03-19T09:58:51.616Z,4.8
2019-03-19T09:59:43.549Z,4.9
2019-03-19T10:00:32.110Z,4.9
2019-03-19T10:01:22.027Z,5
2019-03-19T10:02:12.401Z,5
2019-03-19T10:03:02.040Z,5
2019-03-19T10:03:52.003Z,5.1
2019-03-19T10:04:41.962Z,5.1
2019-03-19T10:05:32.003Z,5.2
2019-03-19T10:06:22.009Z,5.3
2019-03-19T10:07:12.106Z,5.3
2019-03-19T10:08:08.278Z,5.4
2019-03-19T10:09:02.698Z,5.3
2019-03-19T10:09:52.633Z,5.3
2019-03-19T10:10:44.060Z,5.3
2019-03-19T10:11:35.705Z,5.2
2019-03-19T10:12:26.451Z,5.2
2019-03-19T10:13:17.712Z,5.2
2019-03-19T10:14:08.687Z,5.2
2019-03-19T10:15:00.580Z,5.2
2019-03-19T10:15:50.836Z,5.2
2019-03-19T10:16:40.540Z,5.2
2019-03-19T10:17:31.387Z,5.2
2019-03-19T10:18:27.899Z,5.2
2019-03-19T10:19:17.836Z,5.2
2019-03-19T10:20:09.641Z,5.2
2019-03-19T10:20:57.844Z,5.3
2019-03-19T10:21:50.124Z,5.3
2019-03-19T10:22:39.908Z,5.4
2019-03-19T10:23:29.879Z,5.4
2019-03-19T10:24:20.175Z,5.4
2019-03-19T10:25:09.913Z,5.5
2019-03-19T10:28:58.707Z,5.9
2019-03-19T10:29:49.770Z,5.9
2019-03-19T10:30:39.242Z,5.9
2019-03-19T10:31:29.265Z,5.9
2019-03-19T10:32:19.295Z,5.9
2019-03-19T10:33:11.481Z,5.9
2019-03-19T10:33:59.218Z,5.9
2019-03-19T10:34:49.285Z,5.9
2019-03-19T10:35:39.265Z,5.9
2019-03-19T10:36:29.353Z,5.9
2019-03-19T10:37:20.087Z,5.8
2019-03-19T10:38:12.317Z,5.8
2019-03-19T10:38:59.214Z,5.8
2019-03-19T10:39:49.498Z,5.9
2019-03-19T10:40:39.240Z,5.9
2019-03-19T10:41:30.033Z,6
2019-03-19T10:42:20.882Z,6
2019-03-19T10:43:14.092Z,6
2019-03-19T10:44:01.412Z,6
2019-03-19T10:44:51.591Z,6.1
2019-03-19T10:45:44.173Z,6.1
2019-03-19T10:46:34.013Z,6.2
2019-03-19T10:47:26.515Z,6.2
2019-03-19T10:48:14.128Z,6.3
2019-03-19T10:49:04.016Z,6.4
2019-03-19T10:49:55.161Z,6.4
2019-03-19T10:50:45.234Z,6.5
2019-03-19T10:51:36.561Z,6.5
2019-03-19T10:52:25.790Z,6.5
2019-03-19T10:53:18.713Z,6.5
2019-03-19T10:54:05.589Z,6.4
2019-03-19T10:54:55.713Z,6.4
2019-03-19T10:55:45.678Z,6.5
2019-03-19T10:56:35.712Z,6.6
2019-03-19T10:57:30.220Z,6.6
2019-03-19T10:58:17.949Z,6.6
2019-03-19T10:59:09.818Z,6.7
2019-03-19T10:59:59.741Z,6.6
2019-03-19T11:00:49.729Z,6.6
2019-03-19T11:01:39.796Z,6.6
2019-03-19T11:02:29.839Z,6.6
2019-03-19T11:03:21.510Z,6.6
2019-03-19T11:04:09.746Z,6.7
2019-03-19T11:04:59.801Z,6.7
2019-03-19T11:05:49.807Z,6.7
2019-03-19T11:06:40.568Z,6.8
2019-03-19T11:07:31.793Z,6.8
2019-03-19T11:08:20.788Z,6.8
2019-03-19T11:09:10.814Z,6.8
2019-03-19T11:10:01.348Z,6.8
2019-03-19T11:10:50.722Z,6.8
2019-03-19T11:11:40.417Z,6.8
2019-03-19T11:12:30.309Z,6.8
2019-03-19T11:13:21.310Z,6.8
2019-03-19T11:14:10.327Z,6.8
2019-03-19T11:15:00.571Z,6.9
2019-03-19T11:15:51.317Z,6.9
2019-03-19T11:16:41.225Z,6.9
2019-03-19T11:17:32.007Z,7
2019-03-19T11:18:21.811Z,7
2019-03-19T11:19:11.857Z,7
2019-03-19T11:20:01.972Z,7
2019-03-19T11:20:52.117Z,7.1
2019-03-19T11:21:41.869Z,7.1
2019-03-19T11:22:33.489Z,7.1
2019-03-19T11:23:22.896Z,7.2
2019-03-19T11:24:11.866Z,7.2
2019-03-19T11:25:02.167Z,7.2
2019-03-19T11:25:54.592Z,7.2
2019-03-19T11:26:42.525Z,7.3
2019-03-19T11:27:32.767Z,7.3
2019-03-19T11:28:23.066Z,7.3
2019-03-19T11:29:15.704Z,7.3
2019-03-19T11:30:06.624Z,7.4
2019-03-19T11:30:55.682Z,7.4
2019-03-19T11:31:46.396Z,7.5
2019-03-19T11:32:36.399Z,7.6
2019-03-19T11:33:29.068Z,7.6
2019-03-19T11:34:16.369Z,7.7
2019-03-19T11:35:06.395Z,7.7
2019-03-19T11:35:56.357Z,7.7
2019-03-19T11:36:57.135Z,7.7
2019-03-19T11:37:36.410Z,7.7
2019-03-19T11:38:27.006Z,7.7
2019-03-19T11:39:17.583Z,7.7
2019-03-19T11:40:07.410Z,7.7
2019-03-19T11:40:57.435Z,7.7
2019-03-19T11:41:47.391Z,7.7
2019-03-19T11:42:37.391Z,7.7
2019-03-19T11:43:28.942Z,7.7
2019-03-19T11:44:17.364Z,7.7
2019-03-19T11:45:07.997Z,7.7
2019-03-19T11:45:57.932Z,7.7
2019-03-19T11:46:47.880Z,7.7
2019-03-19T11:47:39.557Z,7.8
2019-03-19T11:48:28.899Z,7.8
2019-03-19T11:49:17.944Z,7.8
2019-03-19T11:50:09.314Z,7.9
2019-03-19T11:50:57.966Z,7.9
2019-03-19T11:51:47.937Z,7.9
2019-03-19T11:52:40.656Z,7.9
2019-03-19T11:53:34.231Z,7.8
2019-03-19T11:54:18.128Z,7.9
2019-03-19T11:55:09.835Z,7.9
2019-03-19T11:55:59.198Z,7.9
2019-03-19T11:56:51.590Z,7.9
2019-03-19T11:57:44.869Z,7.9
2019-03-19T12:04:49.971Z,8.1
2019-03-19T12:05:40.481Z,8.1
2019-03-19T12:06:32.509Z,8.2
2019-03-19T12:07:20.247Z,8.2
2019-03-19T12:08:35.548Z,8.3
2019-03-19T12:09:26.737Z,8.4
2019-03-19T12:10:19.765Z,8.3
2019-03-19T12:11:12.430Z,8.3
2019-03-19T12:12:12.574Z,8.3
2019-03-19T12:13:39.015Z,8.3
2019-03-19T12:14:40.878Z,8.4
2019-03-19T12:15:38.609Z,8.5
2019-03-19T12:16:40.223Z,8.6
2019-03-19T12:19:04.779Z,8.6
2019-03-19T12:19:58.296Z,8.6
2019-03-19T12:20:54.008Z,8.6
2019-03-19T12:21:47.226Z,8.6
2019-03-19T12:22:36.716Z,8.6
2019-03-19T12:23:29.475Z,8.6
2019-03-19T12:24:17.470Z,8.7